ADDS METAR Data INFO
IDs: Format: Raw Decoded Include TAF

Data at: 1848 UTC 16 Dec 2017

KFNT 161753Z 09008KT 10SM OVC022 M04/M07 A2999 RMK AO2 SLP167 60004 T10441072 11044 21050 50004
KFNT 161653Z 07007KT 9SM OVC027 M04/M07 A2999 RMK AO2 SNE11B32E50 SLP168 P0000 T10441067
KFNT 161553Z 06007KT 8SM -SN SCT022 OVC028 M05/M07 A2999 RMK AO2 SNE33B49 SLP167 P0001 T10501072
KFNT 161530Z 07007KT 7SM -SN FEW010 OVC020 M05/M07 A2998 RMK AO2 P0001 T10501072
KFNT 161453Z 08006KT 1 3/4SM -SN BR SCT010 OVC021 M05/M07 A2998 RMK AO2 UPE1358SNB1358 SLP163 P0002 60003 T10501067 53024
KFNT 161447Z 06005KT 1 3/4SM -SN BR FEW010 OVC021 M05/M07 A2998 RMK AO2 UPE1358SNB1358 P0002
KFNT 161353Z 08006KT 10SM UP OVC019 M05/M07 A2995 RMK AO2 UPB50SNE31 SLP154 P0000 T10501072
KFNT 161253Z 06006KT 6SM -SN BR FEW008 OVC019 M05/M07 A2992 RMK AO2 SLP144 P0001 T10501067
KFNT 161242Z 05006KT 7SM -SN FEW008 OVC019 M04/M07 A2992 RMK AO2 P0001 T10441067
KFNT 161226Z 05006KT 2SM -SN BR FEW008 OVC019 M04/M06 A2992 RMK AO2 P0001 T10441061
KFNT 161216Z 05006KT 2SM -SN BR OVC018 M04/M06 A2991 RMK AO2 P0001 T10441061
KFNT 161153Z 06007KT 4SM -SN BR OVC018 M04/M06 A2990 RMK AO2 SLP138 P0001 60009 70011 T10441061 11044 21056 53006
KFNT 161128Z 05005KT 4SM -SN BR OVC018 M04/M06 A2990 RMK AO2 P0001 T10441061
KFNT 161053Z 03003KT 2SM -SN BR OVC018 M04/M06 A2989 RMK AO2 SLP134 P0002 T10441061
KFNT 161041Z 04003KT 1 3/4SM -SN BR OVC018 M05/M06 A2988 RMK AO2 P0002 T10501061
KFNT 160953Z AUTO 00000KT 2 1/2SM -SN BR BKN026 OVC032 M05/M06 A2987 RMK AO2 SLP128 P0002 T10501061
KFNT 160942Z AUTO 00000KT 2SM -SN BR OVC026 M05/M06 A2987 RMK AO2 P0002 T10501061
KFNT 160926Z AUTO 16003KT 1 1/2SM -SN BR OVC024 M05/M06 A2987 RMK AO2 P0001 T10501061
KFNT 160912Z AUTO 17003KT 2SM -SN BR OVC028 M05/M06 A2987 RMK AO2 P0000 T10501061
KFNT 160859Z AUTO 16004KT 3SM -SN BR OVC026 M06/M06 A2988 RMK AO2 P0000 T10561061
KFNT 160853Z AUTO 16004KT 1 3/4SM R09/6000VP6000FT -SN BR OVC024 M06/M06 A2988 RMK AO2 SLP131 P0002 60004 T10561061 50001
KFNT 160840Z AUTO 15003KT 1 1/2SM -SN BR OVC019 M05/M06 A2988 RMK AO2 P0001 T10501061
KFNT 160825Z AUTO 00000KT 2SM -SN BR BKN017 OVC023 M05/M06 A2989 RMK AO2 P0001 T10501061
KFNT 160753Z AUTO 00000KT 3SM -SN BR OVC022 M06/M06 A2989 RMK AO2 SLP133 P0002 T10561061
KFNT 160750Z AUTO 00000KT 2 1/2SM -SN BR OVC022 M06/M06 A2989 RMK AO2 P0002
KFNT 160710Z AUTO 00000KT 1 3/4SM -SN BR BKN024 OVC031 M06/M07 A2988 RMK AO2 P0001 T10561067
KFNT 160653Z AUTO 00000KT 2 1/2SM -SN BR OVC029 M05/M07 A2988 RMK AO2 SLP131 P0000 T10501067
KFNT 160553Z AUTO 21004KT 6SM -SN FEW027 OVC044 M05/M08 A2987 RMK AO2 SLP127 P0001 60001 T10501078 11050 21072 58005
KFNT 160453Z AUTO 23006KT 9SM -SN BKN028 OVC038 M06/M09 A2989 RMK AO2 SNB20 SLP132 P0000 T10561089 410441089
KFNT 160450Z AUTO 23005KT 9SM -SN BKN028 OVC038 M06/M09 A2988 RMK AO2 SNB20 P0000
KFNT 160353Z 23006KT 10SM SCT033 BKN040 OVC047 M06/M09 A2988 RMK AO2 SLP132 T10561094
KFNT 160253Z 23007KT 10SM BKN045 BKN090 M07/M08 A2989 RMK AO2 SLP134 60000 T10671083 53015
KFNT 160153Z 22005KT 10SM BKN046 M07/M08 A2987 RMK AO2 SLP127 T10671083
KFNT 160053Z 26006KT 9SM FEW028 SCT037 OVC045 M06/M08 A2986 RMK AO2 SNB21E52 SLP124 P0000 T10561078
KFNT 152353Z 28009KT 10SM OVC048 M06/M09 A2984 RMK AO2 SNE07 SLP119 P0000 60000 T10561089 11044 21056 51019
KFNT 152253Z 27010KT 3SM -SN SCT032 BKN041 OVC055 M05/M08 A2983 RMK AO2 SNE2156B14E23B44 SLP114 P0000 T10501083
KFNT 152200Z 28012KT 9SM SCT034 OVC055 M05/M08 A2980 RMK AO2 SNE2156 P0000 T10501078
KFNT 152153Z 27013KT 8SM -SN FEW017 BKN026 OVC034 M05/M08 A2980 RMK AO2 SLP105 P0000 T10501078
KFNT 152119Z 28012KT 2 1/2SM -SN FEW017 BKN026 OVC034 M04/M07 A2979 RMK AO2 P0000 T10441072
KFNT 152100Z 27010KT 2SM -SN FEW019 BKN036 OVC048 M04/M07 A2979 RMK AO2 P0000 T10441072
KFNT 152053Z 27009KT 5SM -SN FEW021 BKN027 OVC055 M04/M07 A2978 RMK AO2 SLP099 P0000 60000 T10441072 53006
KFNT 152025Z 27010KT 4SM -SN FEW020 BKN028 OVC045 M04/M08 A2978 RMK AO2 P0000 T10441078
KFNT 151953Z 26009KT 2SM -SN SCT018 BKN026 OVC030 M04/M08 A2977 RMK AO2 SNE08B25 SLPNO P0000 T10441078
KFNT 151946Z 25011KT 2SM -SN SCT018 BKN026 OVC037 M04/M08 A2977 RMK AO2 SNE08B25 P0000 T10441078
KFNT 151853Z 25011KT 6SM -SN FEW014 OVC055 M04/M07 A2977 RMK AO2 SLP092 P0000 T10441072
KFNT 151812Z 25011KT 2SM -SN SCT020 BKN033 OVC055 M05/M08 A2976 RMK AO2 P0000 T10501078
KFNT 151753Z 25012KT 3SM -SN FEW017 BKN023 OVC028 M05/M08 A2977 RMK AO2 SLP093 P0000 60001 T10501078 11050 21072 56016
KFNT 151653Z 23011KT 3/4SM R09/4500VP6000FT -SN BR BKN019 OVC024 M06/M08 A2977 RMK AO2 SLP095 P0001 T10611083
KFNT 151553Z 21010KT 3/4SM R09/5500VP6000FT -SN BR VV019 M07/M09 A2980 RMK AO2 SNB1458 SLP103 P0000 T10671089 $
KFNT 151540Z 20010G17KT 3/4SM R09/4500VP6000FT -SN BR VV019 M07/M09 A2980 RMK AO2 SNB1458 P0000 T10671089 $
KFNT 151512Z 21010KT 1SM R09/P6000FT -SN BKN023 OVC034 M07/M10 A2981 RMK AO2 SNB1458 P0000 T10671100 $
KFNT 151458Z 21012KT 2 1/2SM -SN BKN029 OVC036 M06/M11 A2981 RMK AO2 SNB58 P0000 T10611111 $
KFNT 151453Z 20010KT 10SM OVC036 M06/M11 A2982 RMK AO2 SLP110 T10611111 58020 $
KFNT 151353Z 20010KT 10SM OVC035 M07/M11 A2983 RMK AO2 SLP117 T10671111 $
KFNT 151253Z 20009KT 10SM OVC043 M07/M11 A2986 RMK AO2 SLP124 T10721111 $
KFNT 151153Z 19007KT 10SM OVC046 M07/M11 A2987 RMK AO2 SLP131 60000 T10721106 11072 21089 56020 $
KFNT 151053Z COR 19007KT 9SM -SN OVC042 M08/M11 A2989 RMK AO2 SNB41E48 SLP137 P0000 T10781106 $
KFNT 150953Z AUTO 20007KT 10SM BKN044 OVC100 M08/M11 A2991 RMK AO2 SLP145 T10831106 $
KFNT 150853Z AUTO 19007KT 10SM FEW047 OVC100 M08/M11 A2993 RMK AO2 SLP151 T10831111 $
KFNT 150653Z AUTO 23005KT 10SM OVC037 M08/M12 A2997 RMK AO2 SLP163 T10831117